ADDS METAR Data INFO
IDs: Format: Raw Decoded Include TAF

Data at: 0102 UTC 22 Oct 2017

KFDY 220053Z AUTO 17008KT 10SM CLR 16/06 A3018 RMK AO2 SLP218 T01610056 TSNO
KFDY 212353Z AUTO 17008KT 10SM CLR 16/04 A3018 RMK AO2 SLP218 T01560044 10261 20156 53010 TSNO
KFDY 212253Z AUTO 18009KT 10SM CLR 18/04 A3017 RMK AO2 SLP212 T01830039 TSNO
KFDY 212153Z AUTO 18011KT 10SM CLR 23/04 A3016 RMK AO2 SLP208 T02280044 TSNO
KFDY 212053Z AUTO 17010KT 10SM CLR 26/09 A3015 RMK AO2 SLP204 T02560094 56013 TSNO
KFDY 211953Z AUTO 18009KT 10SM CLR 24/10 A3016 RMK AO2 SLP209 T02440100 TSNO
KFDY 211853Z AUTO 22010KT 10SM CLR 25/09 A3018 RMK AO2 SLP211 T02500089 TSNO
KFDY 211753Z AUTO 17005KT 10SM CLR 24/12 A3019 RMK AO2 SLP218 T02390117 10244 20106 58013 TSNO
KFDY 211653Z AUTO 15007KT 10SM CLR 22/12 A3021 RMK AO2 SLP224 T02220117 TSNO
KFDY 211553Z AUTO 17009KT 10SM CLR 21/12 A3023 RMK AO2 SLP230 T02110117 TSNO
KFDY 211453Z AUTO 16008KT 10SM CLR 19/12 A3023 RMK AO2 SLP232 T01890117 50003 TSNO
KFDY 211353Z AUTO 15007KT 10SM CLR 14/10 A3024 RMK AO2 SLP235 T01440100 TSNO
KFDY 211253Z AUTO 14005KT 10SM CLR 12/08 A3023 RMK AO2 SLP233 T01220083 TSNO
KFDY 211153Z AUTO 15003KT 10SM CLR 11/08 A3022 RMK AO2 SLP231 T01060078 10128 20106 53012 TSNO
KFDY 211053Z AUTO 14005KT 10SM CLR 12/08 A3021 RMK AO2 SLP224 T01170078 TSNO
KFDY 210953Z AUTO 13004KT 10SM CLR 11/08 A3020 RMK AO2 SLP221 T01110078 TSNO
KFDY 210853Z AUTO 00000KT 10SM CLR 12/08 A3019 RMK AO2 SLP216 T01170078 53002 TSNO
KFDY 210753Z AUTO 12004KT 10SM CLR 12/07 A3017 RMK AO2 SLP210 T01170072 TSNO
KFDY 210653Z AUTO 14005KT 10SM CLR 12/07 A3018 RMK AO2 SLP213 T01220072 TSNO
KFDY 210553Z AUTO 15005KT 10SM CLR 13/07 A3018 RMK AO2 SLP214 T01280072 10178 20122 53003 TSNO
KFDY 210453Z AUTO 14005KT 10SM CLR 13/07 A3017 RMK AO2 SLP211 T01330067 402500050 TSNO
KFDY 210353Z AUTO 16005KT 10SM CLR 14/07 A3018 RMK AO2 SLP213 T01390067 TSNO
KFDY 210253Z AUTO 17007KT 10SM CLR 13/07 A3017 RMK AO2 SLP213 T01280067 54000 TSNO
KFDY 210153Z AUTO 16007KT 10SM CLR 14/07 A3017 RMK AO2 SLP213 T01440072 TSNO
KFDY 210053Z AUTO 16007KT 10SM CLR 16/07 A3017 RMK AO2 SLP215 T01560072 TSNO
KFDY 202353Z AUTO 15006KT 10SM CLR 18/07 A3017 RMK AO2 SLP215 T01780072 10250 20178 53002 TSNO
KFDY 202253Z AUTO 16005KT 10SM CLR 19/07 A3017 RMK AO2 SLP213 T01940072 TSNO
KFDY 202153Z AUTO 16006KT 10SM CLR 23/09 A3016 RMK AO2 SLP209 T02280089 TSNO
KFDY 202053Z AUTO 17008KT 10SM CLR 25/08 A3017 RMK AO2 SLP211 T02500078 56021 TSNO
KFDY 201953Z AUTO 18009KT 10SM CLR 25/08 A3018 RMK AO2 SLP216 T02500078 TSNO
KFDY 201853Z AUTO 18008KT 10SM CLR 24/07 A3021 RMK AO2 SLP224 T02440072 TSNO
KFDY 201753Z AUTO 15008KT 10SM CLR 23/07 A3023 RMK AO2 SLP232 T02330072 10239 20056 58021 TSNO
KFDY 201653Z AUTO 18007KT 10SM CLR 22/06 A3026 RMK AO2 SLP244 T02220061 TSNO
KFDY 201553Z AUTO 18006KT 10SM CLR 21/03 A3028 RMK AO2 SLP251 T02060028 TSNO
KFDY 201453Z AUTO 15007KT 10SM CLR 18/03 A3029 RMK AO2 SLP254 T01780028 51007 TSNO
KFDY 201353Z AUTO 16004KT 10SM CLR 14/06 A3029 RMK AO2 SLP253 T01390061 TSNO